Latest Weather Observations for Sydney - Observatory Hill

IDN60901

Issued at 9:11 am EST Thursday 27 April 2017 (issued every 10 minutes, with the page automatically refreshed every 10 minutes)

About weather observations | Map of Sydney area stations | Latest observations for Sydney area | Other Formats
Station Details ID: 066062 Name: SYDNEY (OBSERVATORY HILL) Lat: -33.86 Lon: 151.21 Height: 39.0 m
Data from the previous 72 hours. | See also: Recent months at Sydney - Observatory Hill

* Apparent temperature (App Temp) for Sydney - Observatory Hill is calculated using temperature observations collected at Sydney - Observatory Hill and wind observations collected at Fort Denison, as wind observations are not currently provided for Sydney - Observatory Hill.

Date/Time
EST
Temp
°C
App
Temp
°C
Dew
Point
°C
Rel
Hum
%
Delta-T
°C
Wind Press
QNH
hPa
Press
MSL
hPa
Rain since
9am
mm
Dir  Spd
km/h
Gust
km/h
Spd
kts
Gust
kts
27/09:00am 13.1 7.2 1.8 46 4.9 W 22 - 12 - 1015.9 1015.8 -
27/08:30am 12.6 6.6 1.0 45 4.9 WSW 22 - 12 - 1015.8 1015.7 -
27/08:00am 13.1 6.8 1.8 46 4.9 WSW 24 - 13 - 1015.3 1015.2 -
27/07:30am 12.8 7.0 2.4 49 4.5 W 22 - 12 - 1014.8 1014.7 -
27/07:00am 12.2 6.0 2.4 51 4.3 WSW 24 - 13 - 1014.2 1014.1 -
27/06:30am 12.2 6.8 2.4 51 4.3 WSW 20 - 11 - 1013.6 1013.5 -
27/06:00am 12.3 6.5 2.5 51 4.3 W 22 - 12 - 1013.3 1013.2 -
27/05:30am 12.3 6.5 2.5 51 4.3 W 22 - 12 - 1012.8 1012.7 -
27/05:00am 12.3 6.5 2.5 51 4.3 WSW 22 - 12 - 1012.6 1012.5 -
27/04:30am 12.8 7.5 2.9 51 4.4 WSW 20 - 11 - 1012.2 1012.1 -
27/04:00am 13.0 7.7 3.1 51 4.4 WSW 20 - 11 - 1011.9 1011.8 -
27/03:30am 13.2 7.7 3.8 53 4.2 W 22 - 12 - 1011.9 1011.8 -
27/03:00am 13.6 8.7 4.2 53 4.3 WSW 19 - 10 - 1011.7 1011.6 0.0
27/02:30am 14.2 8.9 5.0 54 4.3 WSW 22 - 12 - 1011.8 1011.7 -
27/02:00am 14.8 10.0 5.6 54 4.4 WSW 20 - 11 - 1011.8 1011.7 -
27/01:30am 14.9 10.2 6.0 55 4.3 WSW 20 - 11 - 1011.7 1011.6 -
27/01:00am 15.1 10.5 6.4 56 4.2 W 20 - 11 - 1011.6 1011.5 -
27/12:30am 15.2 10.6 6.5 56 4.2 W 20 - 11 - 1011.4 1011.3 -
27/12:00am 15.1 10.1 6.4 56 4.2 WSW 22 - 12 - 1011.1 1011.0 -
 
Date/Time
EST
Temp
°C
App
Temp
°C
Dew
Point
°C
Rel
Hum
%
Delta-T
°C
Wind Press
QNH
hPa
Press
MSL
hPa
Rain since
9am
mm
Dir  Spd
km/h
Gust
km/h
Spd
kts
Gust
kts
26/11:30pm 15.1 10.7 6.4 56 4.2 W 19 - 10 - 1010.8 1010.7 -
26/11:00pm 15.1 10.1 6.4 56 4.2 W 22 - 12 - 1010.5 1010.4 -
26/10:30pm 15.0 9.5 6.0 55 4.3 W 24 - 13 - 1010.5 1010.4 -
26/10:00pm 15.1 10.0 6.1 55 4.3 W 22 - 12 - 1010.2 1010.1 -
26/09:30pm 15.0 11.2 5.8 54 4.4 SW 15 - 8 - 1010.3 1010.2 -
26/09:00pm 15.1 9.9 5.3 52 4.7 WSW 22 - 12 - 1009.5 1009.4 0.4
26/08:30pm 15.1 9.9 5.3 52 4.6 WSW 22 - 12 - 1008.9 1008.8 -
26/08:00pm 15.1 9.5 5.6 53 4.5 WSW 24 - 13 - 1008.3 1008.2 -
26/07:30pm 15.0 9.9 6.0 55 4.3 W 22 - 12 - 1008.1 1008.0 -
26/07:00pm 14.9 10.2 7.9 63 3.5 W 22 - 12 - 1007.7 1007.6 -
26/06:30pm 15.2 10.6 8.2 63 3.5 W 22 - 12 - 1007.1 1007.0 -
26/06:00pm 14.9 10.9 8.2 64 3.4 W 19 - 10 - 1006.1 1006.0 -
26/05:30pm 14.6 11.5 8.8 68 2.9 WNW 15 - 8 - 1005.1 1005.0 -
26/05:00pm 14.8 11.4 9.0 68 3.0 WNW 17 - 9 - 1005.0 1004.9 -
26/04:30pm 14.3 10.4 8.5 68 2.9 W 19 - 10 - 1005.3 1005.2 -
26/04:00pm 14.0 7.9 8.2 68 2.9 WNW 30 - 16 - 1005.9 1005.8 -
26/03:30pm 16.1 7.6 7.1 55 4.5 W 41 - 22 - 1005.6 1005.5 -
26/03:00pm 18.1 9.2 5.3 43 6.2 WSW 41 - 22 - 1004.0 1003.9 -
26/02:30pm 21.3 15.7 5.2 35 8.0 W 24 - 13 - 1003.0 1002.9 -
26/02:00pm 21.8 15.8 5.3 34 8.2 WSW 26 - 14 - 1002.6 1002.5 -
26/01:30pm 23.7 18.6 6.0 32 9.0 W 22 - 12 - 1002.5 1002.4 -
26/01:00pm 24.3 18.9 4.6 28 9.9 WNW 22 - 12 - 1002.5 1002.4 -
26/12:30pm 24.2 19.3 5.1 29 9.6 WNW 20 - 11 - 1003.0 1002.9 -
26/12:00pm 23.5 18.0 5.9 32 9.0 WNW 24 - 13 - 1003.6 1003.5 -
26/11:30am 23.1 18.1 6.4 34 8.6 WNW 22 - 12 - 1004.4 1004.3 -
26/11:00am 21.7 17.4 7.9 41 7.2 NW 20 - 11 - 1005.0 1004.9 -
26/10:30am 21.6 17.1 8.5 43 6.9 WNW 22 - 12 - 1005.6 1005.5 -
26/10:00am 21.5 17.2 9.4 46 6.5 WNW 22 - 12 - 1006.2 1006.1 -
26/09:30am 21.0 18.6 9.9 49 6.0 WNW 13 - 7 - 1006.4 1006.3 0.0
26/09:00am 20.1 18.0 11.1 56 4.9 WNW 13 - 7 - 1006.9 1006.8 1.8
26/08:30am 19.9 17.6 10.3 54 5.2 NW 13 - 7 - 1007.0 1006.9 1.8
26/08:00am 20.3 18.6 11.2 56 5.0 WNW 11 - 6 - 1007.1 1007.0 1.8
26/07:30am 19.0 18.2 11.8 63 4.0 W 7 - 4 - 1006.9 1006.8 1.8
26/07:00am 17.3 16.5 11.8 70 3.0 NW 7 - 4 - 1006.8 1006.7 1.8
26/06:30am 17.1 15.2 11.8 71 2.9 WNW 13 - 7 - 1006.9 1006.8 1.8
26/06:00am 17.2 14.7 12.3 73 2.7 WNW 17 - 9 - 1007.0 1006.9 1.8
26/05:30am 17.2 16.0 12.7 75 2.5 WNW 11 - 6 - 1006.9 1006.8 1.8
26/05:00am 17.3 16.1 12.8 75 2.5 WNW 11 - 6 - 1006.7 1006.6 1.8
26/04:30am 17.7 16.1 12.8 73 2.7 WNW 13 - 7 - 1006.4 1006.3 1.8
26/04:00am 17.9 16.5 13.4 75 2.6 WNW 13 - 7 - 1006.5 1006.4 1.8
26/03:30am 18.2 17.6 13.5 74 2.7 WSW 9 - 5 - 1006.8 1006.7 1.8
26/03:00am 18.3 17.4 13.8 75 2.6 W 11 - 6 - 1007.0 1006.9 1.8
26/02:30am 18.8 17.6 14.1 74 2.7 W 13 - 7 - 1007.1 1007.0 1.8
26/02:00am 19.1 18.5 14.6 75 2.6 W 11 - 6 - 1007.7 1007.6 1.8
26/01:30am 18.9 17.9 14.6 76 2.5 W 13 - 7 - 1007.7 1007.6 1.8
26/01:00am 18.9 16.8 14.6 76 2.5 NW 19 - 10 - 1007.7 1007.6 1.8
26/12:30am 19.1 16.9 14.8 76 2.5 NW 20 - 11 - 1007.8 1007.7 1.8
26/12:00am 19.4 17.1 14.6 74 2.8 NW 20 - 11 - 1007.8 1007.7 1.8
 
Date/Time
EST
Temp
°C
App
Temp
°C
Dew
Point
°C
Rel
Hum
%
Delta-T
°C
Wind Press
QNH
hPa
Press
MSL
hPa
Rain since
9am
mm
Dir  Spd
km/h
Gust
km/h
Spd
kts
Gust
kts
25/11:30pm 19.9 16.9 14.9 73 2.9 NNW 24 - 13 - 1008.1 1008.0 1.8
25/11:00pm 20.0 17.5 15.2 74 2.8 NNW 22 - 12 - 1008.3 1008.2 1.8
25/10:30pm 20.1 17.1 14.9 72 3.1 NNW 24 - 13 - 1008.3 1008.2 1.8
25/10:00pm 20.4 17.5 15.0 71 3.2 NNW 24 - 13 - 1008.5 1008.4 1.8
25/09:30pm 20.4 17.5 15.0 71 3.2 NNW 24 - 13 - 1008.8 1008.7 1.8
25/09:00pm 20.6 17.7 15.2 71 3.2 NNW 24 - 13 - 1008.7 1008.6 1.8
25/08:30pm 20.3 17.9 15.3 73 3.0 NNW 22 - 12 - 1008.6 1008.5 1.8
25/08:00pm 20.3 18.9 15.5 74 2.9 N 17 - 9 - 1008.5 1008.4 1.8
25/07:30pm 20.3 19.2 15.3 73 3.0 N 15 - 8 - 1008.5 1008.4 1.8
25/07:00pm 20.4 18.5 15.2 72 3.1 N 19 - 10 - 1008.8 1008.7 1.8
25/06:30pm 20.6 18.6 15.4 72 3.1 N 20 - 11 - 1008.5 1008.4 1.8
25/06:00pm 20.4 17.5 15.2 72 3.1 N 24 - 13 - 1008.6 1008.5 1.8
25/05:30pm 20.3 17.6 15.5 74 2.9 N 24 - 13 - 1008.7 1008.6 1.8
25/05:00pm 20.5 18.2 15.7 74 2.9 N 22 - 12 - 1008.9 1008.8 1.8
25/04:30pm 20.5 18.4 16.1 76 2.6 N 22 - 12 - 1008.5 1008.4 1.8
25/04:00pm 20.7 18.9 16.1 75 2.8 N 20 - 11 - 1008.7 1008.6 1.6
25/03:30pm 20.6 17.7 16.2 76 2.6 N 26 - 14 - 1008.7 1008.6 1.6
25/03:00pm 21.9 19.3 15.0 65 4.1 NW 22 - 12 - 1008.9 1008.8 0.2
25/02:30pm 24.1 24.2 13.9 53 6.0 NE 6 - 3 - 1008.6 1008.5 0.0
25/02:00pm 25.0 24.2 15.0 53 6.0 NE 13 - 7 - 1008.8 1008.7 0.0
25/01:30pm 25.9 25.3 13.4 46 7.3 N 9 - 5 - 1008.9 1008.8 0.0
25/01:00pm 25.7 23.3 12.5 44 7.6 N 17 - 9 - 1009.4 1009.3 0.0
25/12:30pm 26.2 25.3 13.7 46 7.4 NE 11 - 6 - 1009.9 1009.8 0.0
25/12:00pm 24.6 23.1 15.2 55 5.7 ENE 17 - 9 - 1010.7 1010.6 0.0
25/11:30am 24.9 24.5 14.1 51 6.4 NE 9 - 5 - 1011.4 1011.3 0.0
25/11:00am 23.9 22.9 13.4 51 6.1 N 11 - 6 - 1012.1 1012.0 0.0
25/10:30am 23.1 22.3 14.1 57 5.3 N 11 - 6 - 1012.9 1012.8 0.0
25/10:00am 22.3 23.3 14.2 60 4.7 SE 2 - 1 - 1013.3 1013.2 0.0
25/09:30am 21.4 22.1 14.6 65 4.0 ENE 4 - 2 - 1013.8 1013.7 0.0
25/09:00am 20.6 21.4 14.7 69 3.5 E 4 - 2 - 1014.1 1014.0 0.0
25/08:30am 19.9 20.2 14.5 71 3.1 ENE 6 - 3 - 1014.4 1014.3 0.0
25/08:00am 19.5 20.0 14.1 71 3.1 ENE 4 - 2 - 1014.4 1014.3 0.0
25/07:30am 19.3 20.3 14.3 73 2.9 ENE 2 - 1 - 1014.5 1014.4 0.0
25/07:00am 19.1 19.4 14.4 74 2.7 E 6 - 3 - 1014.5 1014.4 0.0
25/06:30am 18.7 19.3 14.2 75 2.6 ENE 4 - 2 - 1014.3 1014.2 0.0
25/06:00am 18.8 19.3 14.1 74 2.7 NE 4 - 2 - 1014.4 1014.3 0.0
25/05:30am 18.7 19.7 14.2 75 2.6 E 2 - 1 - 1014.4 1014.3 0.0
25/05:00am 18.9 19.5 14.2 74 2.7 NNE 4 - 2 - 1014.6 1014.5 0.0
25/04:30am 18.9 19.9 14.2 74 2.7 NNW 2 - 1 - 1014.5 1014.4 0.0
25/04:00am 18.8 19.7 13.9 73 2.8 ENE 2 - 1 - 1014.8 1014.7 0.0
25/03:30am 18.9 19.7 13.7 72 3.0 NW 2 - 1 - 1015.0 1014.9 0.0
25/03:00am 19.4 19.5 13.8 70 3.2 ENE 6 - 3 - 1015.2 1015.1 0.0
25/02:30am 19.5 20.4 13.9 70 3.2 N 2 - 1 - 1015.7 1015.6 0.0
25/02:00am 19.5 19.9 13.7 69 3.3 ESE 4 - 2 - 1016.2 1016.1 0.0
25/01:30am 19.5 19.3 13.0 66 3.7 NNW 6 - 3 - 1016.5 1016.4 0.0
25/01:00am 20.0 19.3 13.2 65 3.9 N 9 - 5 - 1016.8 1016.7 0.0
25/12:30am 20.3 17.6 13.0 63 4.1 NNE 19 - 10 - 1017.1 1017.0 0.0
25/12:00am 20.2 17.6 13.2 64 4.0 NNE 19 - 10 - 1017.6 1017.5 0.0
 
Date/Time
EST
Temp
°C
App
Temp
°C
Dew
Point
°C
Rel
Hum
%
Delta-T
°C
Wind Press
QNH
hPa
Press
MSL
hPa
Rain since
9am
mm
Dir  Spd
km/h
Gust
km/h
Spd
kts
Gust
kts
24/11:30pm 20.0 18.3 14.8 72 3.0 N 17 - 9 - 1017.9 1017.8 0.0
24/11:00pm 20.1 19.1 15.5 75 2.7 NNE 15 - 8 - 1018.3 1018.2 0.0
24/10:30pm 20.1 19.4 15.5 75 2.7 NNE 13 - 7 - 1018.5 1018.5 0.0
24/10:00pm 20.0 20.7 15.6 76 2.6 NE 6 - 3 - 1018.9 1018.9 0.0
24/09:30pm 20.0 20.8 15.8 77 2.5 NNE 6 - 3 - 1019.2 1019.2 0.0
24/09:00pm 20.0 19.5 16.0 78 2.4 NNE 13 - 7 - 1019.3 1019.3 0.0
24/08:30pm 20.1 20.0 16.1 78 2.4 NNE 11 - 6 - 1019.0 1019.0 0.0
24/08:00pm 20.2 20.0 15.8 76 2.6 NNE 11 - 6 - 1018.9 1018.9 0.0
24/07:30pm 20.4 20.5 15.6 74 2.9 NE 9 - 5 - 1019.0 1019.0 0.0
24/07:00pm 20.5 21.0 15.5 73 3.0 NNE 7 - 4 - 1018.9 1018.9 0.0
24/06:30pm 20.9 20.9 15.2 70 3.4 NE 9 - 5 - 1018.8 1018.8 0.0
24/06:00pm 21.1 21.0 15.0 68 3.6 NE 9 - 5 - 1018.4 1018.4 0.0
24/05:30pm 21.3 20.7 14.7 66 3.9 NE 11 - 6 - 1018.4 1018.4 0.0
24/05:00pm 21.5 19.8 14.6 65 4.0 ENE 17 - 9 - 1018.2 1018.1 0.0
24/04:30pm 21.7 19.8 14.1 62 4.4 ENE 17 - 9 - 1018.1 1018.0 0.0
24/04:00pm 22.5 20.7 14.4 60 4.8 ENE 17 - 9 - 1018.2 1018.1 0.0
24/03:30pm 22.7 20.5 14.3 59 4.9 E 19 - 10 - 1018.3 1018.2 0.0
24/03:00pm 22.7 21.0 14.8 61 4.7 E 17 - 9 - 1018.4 1018.4 0.0
24/02:30pm 22.9 21.7 15.0 61 4.7 E 15 - 8 - 1018.6 1018.6 0.0
24/02:00pm 23.0 22.0 15.6 63 4.4 E 15 - 8 - 1018.7 1018.7 0.0
24/01:30pm 22.8 21.0 14.4 59 4.9 E 17 - 9 - 1019.1 1019.1 0.0
24/01:00pm 22.9 21.2 14.7 60 4.8 E 17 - 9 - 1019.6 1019.6 0.0
24/12:30pm 23.0 22.2 12.9 53 5.8 E 9 - 5 - 1020.3 1020.2 0.0
24/12:00pm 23.5 23.7 14.2 56 5.5 ESE 6 - 3 - 1020.9 1020.8 0.0
24/11:30am 22.6 23.6 14.2 59 4.9 ESE 2 - 1 - 1021.3 1021.2 0.0
24/11:00am 21.4 21.5 13.8 62 4.4 W 6 - 3 - 1021.9 1021.8 0.0
24/10:30am 20.4 20.4 14.3 68 3.5 WNW 7 - 4 - 1022.2 1022.1 0.0
24/10:00am 19.7 18.9 14.1 70 3.2 WNW 11 - 6 - 1022.5 1022.4 0.0
24/09:30am 18.7 17.8 13.8 73 2.8 WNW 11 - 6 - 1022.7 1022.6 0.0

Latest Capital City Observations: Canberra | Sydney | Melbourne | Brisbane | Adelaide | Perth | Hobart | Darwin

Other Formats:

Comma delimited format used in spreadsheet applications
http://www.bom.gov.au/fwo/IDN60901/IDN60901.94768.axf

JavaScript Object Notation format (JSON) in row-major order
http://www.bom.gov.au/fwo/IDN60901/IDN60901.94768.json